sensor_id;sensor_type;location;lat;lon;timestamp;temperature;humidity
23729;DHT22;12045;60.214;24.724;2022-08-19T00:02:16;24.20;99.90
23729;DHT22;12045;60.214;24.724;2022-08-19T00:04:43;24.20;99.90
23729;DHT22;12045;60.214;24.724;2022-08-19T00:07:14;24.10;99.90
23729;DHT22;12045;60.214;24.724;2022-08-19T00:09:42;24.10;99.90
23729;DHT22;12045;60.214;24.724;2022-08-19T00:12:10;24.10;99.90
23729;DHT22;12045;60.214;24.724;2022-08-19T00:14:38;24.10;99.90
23729;DHT22;12045;60.214;24.724;2022-08-19T00:17:07;24.00;99.90
23729;DHT22;12045;60.214;24.724;2022-08-19T00:19:36;24.10;99.90
23729;DHT22;12045;60.214;24.724;2022-08-19T00:22:04;24.00;99.90
23729;DHT22;12045;60.214;24.724;2022-08-19T00:24:32;24.00;99.90
23729;DHT22;12045;60.214;24.724;2022-08-19T00:27:01;24.00;99.90
23729;DHT22;12045;60.214;24.724;2022-08-19T00:29:49;24.00;99.90
23729;DHT22;12045;60.214;24.724;2022-08-19T00:32:19;24.00;99.90
23729;DHT22;12045;60.214;24.724;2022-08-19T00:34:47;24.00;99.90
23729;DHT22;12045;60.214;24.724;2022-08-19T00:37:15;23.90;99.90
23729;DHT22;12045;60.214;24.724;2022-08-19T00:39:42;23.90;99.90
23729;DHT22;12045;60.214;24.724;2022-08-19T00:42:11;23.90;99.90
23729;DHT22;12045;60.214;24.724;2022-08-19T00:44:41;23.80;99.90
23729;DHT22;12045;60.214;24.724;2022-08-19T00:47:10;23.90;99.90
23729;DHT22;12045;60.214;24.724;2022-08-19T00:49:45;23.90;99.90
23729;DHT22;12045;60.214;24.724;2022-08-19T00:52:18;23.90;99.90
23729;DHT22;12045;60.214;24.724;2022-08-19T00:54:47;23.90;99.90
23729;DHT22;12045;60.214;24.724;2022-08-19T00:57:32;23.90;99.90
23729;DHT22;12045;60.214;24.724;2022-08-19T01:00:07;23.90;99.90
23729;DHT22;12045;60.214;24.724;2022-08-19T01:02:36;23.90;99.90
23729;DHT22;12045;60.214;24.724;2022-08-19T01:05:06;23.80;99.90
23729;DHT22;12045;60.214;24.724;2022-08-19T01:07:37;23.90;99.90
23729;DHT22;12045;60.214;24.724;2022-08-19T01:10:09;24.00;99.90
23729;DHT22;12045;60.214;24.724;2022-08-19T01:12:38;24.00;99.90
23729;DHT22;12045;60.214;24.724;2022-08-19T01:15:09;24.10;99.90
23729;DHT22;12045;60.214;24.724;2022-08-19T01:17:38;24.20;99.90
23729;DHT22;12045;60.214;24.724;2022-08-19T01:20:11;24.20;99.90
23729;DHT22;12045;60.214;24.724;2022-08-19T01:25:16;24.10;99.90
23729;DHT22;12045;60.214;24.724;2022-08-19T01:27:48;24.00;99.90
23729;DHT22;12045;60.214;24.724;2022-08-19T01:30:24;24.00;99.90
23729;DHT22;12045;60.214;24.724;2022-08-19T01:32:53;24.00;99.90
23729;DHT22;12045;60.214;24.724;2022-08-19T01:35:23;24.00;99.90
23729;DHT22;12045;60.214;24.724;2022-08-19T01:37:54;24.00;99.90
23729;DHT22;12045;60.214;24.724;2022-08-19T01:40:24;24.00;99.90
23729;DHT22;12045;60.214;24.724;2022-08-19T01:42:53;24.00;99.90
23729;DHT22;12045;60.214;24.724;2022-08-19T01:45:23;24.00;99.90
23729;DHT22;12045;60.214;24.724;2022-08-19T01:47:52;24.00;99.90
23729;DHT22;12045;60.214;24.724;2022-08-19T01:50:30;24.00;99.90
23729;DHT22;12045;60.214;24.724;2022-08-19T01:52:59;23.90;99.90
23729;DHT22;12045;60.214;24.724;2022-08-19T01:55:36;23.90;99.90
23729;DHT22;12045;60.214;24.724;2022-08-19T01:58:10;24.70;99.90
23729;DHT22;12045;60.214;24.724;2022-08-19T02:00:39;23.80;99.90
23729;DHT22;12045;60.214;24.724;2022-08-19T02:03:07;23.80;99.90
23729;DHT22;12045;60.214;24.724;2022-08-19T02:05:36;23.80;99.90
23729;DHT22;12045;60.214;24.724;2022-08-19T02:08:04;23.70;99.90
23729;DHT22;12045;60.214;24.724;2022-08-19T02:10:32;23.60;99.90
23729;DHT22;12045;60.214;24.724;2022-08-19T02:12:59;23.60;99.90
23729;DHT22;12045;60.214;24.724;2022-08-19T02:15:27;23.60;99.90
23729;DHT22;12045;60.214;24.724;2022-08-19T02:17:54;23.60;99.90
23729;DHT22;12045;60.214;24.724;2022-08-19T02:20:22;23.60;99.90
23729;DHT22;12045;60.214;24.724;2022-08-19T02:22:49;23.50;99.90
23729;DHT22;12045;60.214;24.724;2022-08-19T02:25:17;23.40;99.90
23729;DHT22;12045;60.214;24.724;2022-08-19T02:27:45;23.40;99.90
23729;DHT22;12045;60.214;24.724;2022-08-19T02:30:14;23.30;99.90
23729;DHT22;12045;60.214;24.724;2022-08-19T02:32:43;23.30;99.90
23729;DHT22;12045;60.214;24.724;2022-08-19T02:35:13;23.40;99.90
23729;DHT22;12045;60.214;24.724;2022-08-19T02:37:42;23.40;99.90
23729;DHT22;12045;60.214;24.724;2022-08-19T02:40:30;23.30;99.90
23729;DHT22;12045;60.214;24.724;2022-08-19T02:43:05;23.30;99.90
23729;DHT22;12045;60.214;24.724;2022-08-19T02:45:36;23.20;99.90
23729;DHT22;12045;60.214;24.724;2022-08-19T02:48:08;23.20;99.90
23729;DHT22;12045;60.214;24.724;2022-08-19T02:50:48;23.20;99.90
23729;DHT22;12045;60.214;24.724;2022-08-19T02:53:24;23.20;99.90
23729;DHT22;12045;60.214;24.724;2022-08-19T02:55:52;23.10;99.90
23729;DHT22;12045;60.214;24.724;2022-08-19T02:58:20;23.10;99.90
23729;DHT22;12045;60.214;24.724;2022-08-19T03:00:51;23.10;99.90
23729;DHT22;12045;60.214;24.724;2022-08-19T03:03:19;23.00;99.90
23729;DHT22;12045;60.214;24.724;2022-08-19T03:05:47;23.00;99.90
23729;DHT22;12045;60.214;24.724;2022-08-19T03:08:24;22.80;99.90
23729;DHT22;12045;60.214;24.724;2022-08-19T03:10:53;22.80;99.90
23729;DHT22;12045;60.214;24.724;2022-08-19T03:13:21;22.80;99.90
23729;DHT22;12045;60.214;24.724;2022-08-19T03:15:49;22.90;99.90
23729;DHT22;12045;60.214;24.724;2022-08-19T03:18:17;22.90;99.90
23729;DHT22;12045;60.214;24.724;2022-08-19T03:20:47;23.00;99.90
23729;DHT22;12045;60.214;24.724;2022-08-19T03:23:16;23.00;99.90
23729;DHT22;12045;60.214;24.724;2022-08-19T03:25:46;22.90;99.90
23729;DHT22;12045;60.214;24.724;2022-08-19T03:28:29;22.90;99.90
23729;DHT22;12045;60.214;24.724;2022-08-19T03:30:59;22.90;99.90
23729;DHT22;12045;60.214;24.724;2022-08-19T03:33:31;22.90;99.90
23729;DHT22;12045;60.214;24.724;2022-08-19T03:36:15;22.90;99.90
23729;DHT22;12045;60.214;24.724;2022-08-19T03:38:47;23.30;99.90
23729;DHT22;12045;60.214;24.724;2022-08-19T03:41:25;23.00;99.90
23729;DHT22;12045;60.214;24.724;2022-08-19T03:44:16;23.00;99.90
23729;DHT22;12045;60.214;24.724;2022-08-19T03:46:47;23.10;99.90
23729;DHT22;12045;60.214;24.724;2022-08-19T03:49:17;23.10;99.90
23729;DHT22;12045;60.214;24.724;2022-08-19T03:51:47;23.00;99.90
23729;DHT22;12045;60.214;24.724;2022-08-19T03:54:18;23.00;99.90
23729;DHT22;12045;60.214;24.724;2022-08-19T03:56:47;23.00;99.90
23729;DHT22;12045;60.214;24.724;2022-08-19T03:59:19;23.10;99.90
23729;DHT22;12045;60.214;24.724;2022-08-19T04:01:47;23.00;99.90
23729;DHT22;12045;60.214;24.724;2022-08-19T04:04:14;23.10;99.90
23729;DHT22;12045;60.214;24.724;2022-08-19T04:06:44;23.10;99.90
23729;DHT22;12045;60.214;24.724;2022-08-19T04:09:14;23.10;99.90
23729;DHT22;12045;60.214;24.724;2022-08-19T04:11:48;23.10;99.90
23729;DHT22;12045;60.214;24.724;2022-08-19T04:14:18;23.20;99.90
23729;DHT22;12045;60.214;24.724;2022-08-19T04:16:47;23.30;99.90
23729;DHT22;12045;60.214;24.724;2022-08-19T04:19:16;23.30;99.90
23729;DHT22;12045;60.214;24.724;2022-08-19T04:21:46;23.30;99.90
23729;DHT22;12045;60.214;24.724;2022-08-19T04:24:16;23.40;99.90
23729;DHT22;12045;60.214;24.724;2022-08-19T04:26:45;23.90;99.90
23729;DHT22;12045;60.214;24.724;2022-08-19T04:29:22;23.40;99.90
23729;DHT22;12045;60.214;24.724;2022-08-19T04:31:54;23.50;99.90
23729;DHT22;12045;60.214;24.724;2022-08-19T04:34:25;23.60;99.90
23729;DHT22;12045;60.214;24.724;2022-08-19T04:36:54;23.60;99.90
23729;DHT22;12045;60.214;24.724;2022-08-19T04:39:27;23.70;99.90
23729;DHT22;12045;60.214;24.724;2022-08-19T04:42:18;23.70;99.90
23729;DHT22;12045;60.214;24.724;2022-08-19T04:45:06;23.80;99.90
23729;DHT22;12045;60.214;24.724;2022-08-19T04:47:37;23.90;99.90
23729;DHT22;12045;60.214;24.724;2022-08-19T04:50:25;24.00;99.90
23729;DHT22;12045;60.214;24.724;2022-08-19T04:52:53;24.00;99.90
23729;DHT22;12045;60.214;24.724;2022-08-19T04:55:24;24.70;99.90
23729;DHT22;12045;60.214;24.724;2022-08-19T04:57:54;24.10;99.90
23729;DHT22;12045;60.214;24.724;2022-08-19T05:00:22;24.20;99.90
23729;DHT22;12045;60.214;24.724;2022-08-19T05:02:49;24.20;99.90
23729;DHT22;12045;60.214;24.724;2022-08-19T05:05:17;24.30;99.90
23729;DHT22;12045;60.214;24.724;2022-08-19T05:07:46;24.40;99.90
23729;DHT22;12045;60.214;24.724;2022-08-19T05:10:30;24.00;99.90
23729;DHT22;12045;60.214;24.724;2022-08-19T05:13:20;24.50;99.90
23729;DHT22;12045;60.214;24.724;2022-08-19T05:15:58;24.70;99.90
23729;DHT22;12045;60.214;24.724;2022-08-19T05:18:55;24.70;99.90
23729;DHT22;12045;60.214;24.724;2022-08-19T05:21:42;24.80;99.90
23729;DHT22;12045;60.214;24.724;2022-08-19T05:24:32;24.80;99.90
23729;DHT22;12045;60.214;24.724;2022-08-19T05:27:29;24.80;99.90
23729;DHT22;12045;60.214;24.724;2022-08-19T05:29:58;25.00;99.90
23729;DHT22;12045;60.214;24.724;2022-08-19T05:32:28;24.90;99.90
23729;DHT22;12045;60.214;24.724;2022-08-19T05:35:02;24.90;99.90
23729;DHT22;12045;60.214;24.724;2022-08-19T05:37:35;22.60;99.90
23729;DHT22;12045;60.214;24.724;2022-08-19T05:40:03;25.00;99.90
23729;DHT22;12045;60.214;24.724;2022-08-19T05:42:32;24.90;99.90
23729;DHT22;12045;60.214;24.724;2022-08-19T05:45:01;25.00;99.90
23729;DHT22;12045;60.214;24.724;2022-08-19T05:47:35;25.20;99.90
23729;DHT22;12045;60.214;24.724;2022-08-19T05:50:09;25.70;99.90
23729;DHT22;12045;60.214;24.724;2022-08-19T05:52:43;25.40;99.90
23729;DHT22;12045;60.214;24.724;2022-08-19T05:55:17;23.70;99.90
23729;DHT22;12045;60.214;24.724;2022-08-19T05:58:09;25.40;99.90
23729;DHT22;12045;60.214;24.724;2022-08-19T06:00:37;24.60;99.90
23729;DHT22;12045;60.214;24.724;2022-08-19T06:03:11;24.50;99.90
23729;DHT22;12045;60.214;24.724;2022-08-19T06:05:40;25.50;99.90
23729;DHT22;12045;60.214;24.724;2022-08-19T06:08:18;25.50;99.90
23729;DHT22;12045;60.214;24.724;2022-08-19T06:13:43;25.30;99.90
23729;DHT22;12045;60.214;24.724;2022-08-19T06:16:11;25.50;99.90
23729;DHT22;12045;60.214;24.724;2022-08-19T06:18:43;25.50;99.90
23729;DHT22;12045;60.214;24.724;2022-08-19T06:21:12;25.40;99.90
23729;DHT22;12045;60.214;24.724;2022-08-19T06:24:07;25.80;99.90
23729;DHT22;12045;60.214;24.724;2022-08-19T06:26:41;25.60;99.90
23729;DHT22;12045;60.214;24.724;2022-08-19T06:29:11;25.50;99.90
23729;DHT22;12045;60.214;24.724;2022-08-19T06:34:57;25.50;99.90
23729;DHT22;12045;60.214;24.724;2022-08-19T06:37:32;24.90;99.90
23729;DHT22;12045;60.214;24.724;2022-08-19T06:40:16;25.70;99.90
23729;DHT22;12045;60.214;24.724;2022-08-19T06:42:51;25.50;99.90
23729;DHT22;12045;60.214;24.724;2022-08-19T06:45:34;24.10;99.90
23729;DHT22;12045;60.214;24.724;2022-08-19T06:48:05;25.30;99.90
23729;DHT22;12045;60.214;24.724;2022-08-19T06:50:39;25.40;99.90
23729;DHT22;12045;60.214;24.724;2022-08-19T06:53:29;25.80;99.90
23729;DHT22;12045;60.214;24.724;2022-08-19T06:55:57;25.60;99.90
23729;DHT22;12045;60.214;24.724;2022-08-19T06:58:30;25.40;99.90
23729;DHT22;12045;60.214;24.724;2022-08-19T07:01:11;25.50;99.90
23729;DHT22;12045;60.214;24.724;2022-08-19T07:06:46;25.60;99.90
23729;DHT22;12045;60.214;24.724;2022-08-19T07:09:22;25.60;99.90
23729;DHT22;12045;60.214;24.724;2022-08-19T07:11:54;25.60;99.90
23729;DHT22;12045;60.214;24.724;2022-08-19T07:14:28;25.60;99.90
23729;DHT22;12045;60.214;24.724;2022-08-19T07:16:57;25.70;99.90
23729;DHT22;12045;60.214;24.724;2022-08-19T07:19:48;25.90;99.90
23729;DHT22;12045;60.214;24.724;2022-08-19T07:22:39;26.00;99.90
23729;DHT22;12045;60.214;24.724;2022-08-19T07:25:10;26.30;99.90
23729;DHT22;12045;60.214;24.724;2022-08-19T07:37:27;26.50;99.90
23729;DHT22;12045;60.214;24.724;2022-08-19T07:40:28;26.60;99.90
23729;DHT22;12045;60.214;24.724;2022-08-19T07:43:19;26.80;99.90
23729;DHT22;12045;60.214;24.724;2022-08-19T07:48:46;26.90;99.90
23729;DHT22;12045;60.214;24.724;2022-08-19T07:51:21;26.80;99.90
23729;DHT22;12045;60.214;24.724;2022-08-19T07:54:03;26.90;99.90
23729;DHT22;12045;60.214;24.724;2022-08-19T08:00:04;27.30;99.90
23729;DHT22;12045;60.214;24.724;2022-08-19T08:02:39;27.10;99.90
23729;DHT22;12045;60.214;24.724;2022-08-19T08:05:30;25.00;99.90
23729;DHT22;12045;60.214;24.724;2022-08-19T08:11:49;27.50;99.90
23729;DHT22;12045;60.214;24.724;2022-08-19T08:14:38;27.80;99.90
23729;DHT22;12045;60.214;24.724;2022-08-19T08:17:26;27.80;99.90
23729;DHT22;12045;60.214;24.724;2022-08-19T08:20:15;28.30;99.90
23729;DHT22;12045;60.214;24.724;2022-08-19T08:22:48;28.10;99.90
23729;DHT22;12045;60.214;24.724;2022-08-19T08:25:36;28.20;99.90
23729;DHT22;12045;60.214;24.724;2022-08-19T08:28:12;28.00;99.90
23729;DHT22;12045;60.214;24.724;2022-08-19T08:30:45;27.90;99.90
23729;DHT22;12045;60.214;24.724;2022-08-19T08:33:27;27.80;99.90
23729;DHT22;12045;60.214;24.724;2022-08-19T08:36:08;26.50;99.90
23729;DHT22;12045;60.214;24.724;2022-08-19T08:38:39;27.40;99.90
23729;DHT22;12045;60.214;24.724;2022-08-19T08:43:49;27.70;99.90
23729;DHT22;12045;60.214;24.724;2022-08-19T08:46:48;27.60;99.90
23729;DHT22;12045;60.214;24.724;2022-08-19T08:49:45;27.60;99.90
23729;DHT22;12045;60.214;24.724;2022-08-19T08:52:29;27.40;99.90
23729;DHT22;12045;60.214;24.724;2022-08-19T08:55:05;27.50;99.90
23729;DHT22;12045;60.214;24.724;2022-08-19T09:00:15;27.40;99.90
23729;DHT22;12045;60.214;24.724;2022-08-19T09:02:45;27.40;99.90
23729;DHT22;12045;60.214;24.724;2022-08-19T09:05:19;26.80;99.90
23729;DHT22;12045;60.214;24.724;2022-08-19T09:10:59;27.70;99.90
23729;DHT22;12045;60.214;24.724;2022-08-19T09:16:36;27.50;99.90
23729;DHT22;12045;60.214;24.724;2022-08-19T09:19:09;27.50;99.90
23729;DHT22;12045;60.214;24.724;2022-08-19T09:21:48;27.40;99.90
23729;DHT22;12045;60.214;24.724;2022-08-19T09:24:23;27.40;99.90
23729;DHT22;12045;60.214;24.724;2022-08-19T09:29:53;27.30;99.90
23729;DHT22;12045;60.214;24.724;2022-08-19T09:32:27;27.90;99.90
23729;DHT22;12045;60.214;24.724;2022-08-19T09:34:59;27.00;99.90
23729;DHT22;12045;60.214;24.724;2022-08-19T09:37:36;27.10;99.90
23729;DHT22;12045;60.214;24.724;2022-08-19T09:40:14;27.20;99.90
23729;DHT22;12045;60.214;24.724;2022-08-19T09:42:45;27.20;99.90
23729;DHT22;12045;60.214;24.724;2022-08-19T09:45:20;27.10;99.90
23729;DHT22;12045;60.214;24.724;2022-08-19T09:47:52;28.80;99.90
23729;DHT22;12045;60.214;24.724;2022-08-19T09:50:24;27.20;99.90
23729;DHT22;12045;60.214;24.724;2022-08-19T09:53:02;27.40;99.90
23729;DHT22;12045;60.214;24.724;2022-08-19T09:55:33;27.70;99.90
23729;DHT22;12045;60.214;24.724;2022-08-19T09:58:01;27.40;99.90
23729;DHT22;12045;60.214;24.724;2022-08-19T10:00:37;27.50;99.90
23729;DHT22;12045;60.214;24.724;2022-08-19T10:03:17;27.40;99.90
23729;DHT22;12045;60.214;24.724;2022-08-19T10:05:45;27.40;99.90
23729;DHT22;12045;60.214;24.724;2022-08-19T10:08:26;27.40;99.90
23729;DHT22;12045;60.214;24.724;2022-08-19T10:10:55;27.30;99.90
23729;DHT22;12045;60.214;24.724;2022-08-19T10:13:28;27.40;99.90
23729;DHT22;12045;60.214;24.724;2022-08-19T10:16:05;27.10;99.90
23729;DHT22;12045;60.214;24.724;2022-08-19T10:18:41;28.00;99.90
23729;DHT22;12045;60.214;24.724;2022-08-19T10:21:31;28.70;99.90
23729;DHT22;12045;60.214;24.724;2022-08-19T10:24:01;29.20;99.90
23729;DHT22;12045;60.214;24.724;2022-08-19T10:26:35;29.70;99.90
23729;DHT22;12045;60.214;24.724;2022-08-19T10:29:05;29.90;99.90
23729;DHT22;12045;60.214;24.724;2022-08-19T10:31:35;30.20;99.90
23729;DHT22;12045;60.214;24.724;2022-08-19T10:34:24;30.40;99.90
23729;DHT22;12045;60.214;24.724;2022-08-19T10:36:56;30.70;99.90
23729;DHT22;12045;60.214;24.724;2022-08-19T10:39:29;30.80;99.90
23729;DHT22;12045;60.214;24.724;2022-08-19T10:42:05;32.40;99.90
23729;DHT22;12045;60.214;24.724;2022-08-19T10:44:33;31.20;99.90
23729;DHT22;12045;60.214;24.724;2022-08-19T10:47:03;31.50;99.90
23729;DHT22;12045;60.214;24.724;2022-08-19T10:49:43;31.70;99.90
23729;DHT22;12045;60.214;24.724;2022-08-19T10:52:57;31.70;99.90
23729;DHT22;12045;60.214;24.724;2022-08-19T10:59:33;32.10;99.90
23729;DHT22;12045;60.214;24.724;2022-08-19T11:02:06;31.80;99.90
23729;DHT22;12045;60.214;24.724;2022-08-19T11:04:34;32.00;99.90
23729;DHT22;12045;60.214;24.724;2022-08-19T11:07:04;31.90;99.90
23729;DHT22;12045;60.214;24.724;2022-08-19T11:09:41;32.70;99.90
23729;DHT22;12045;60.214;24.724;2022-08-19T11:12:09;32.10;99.90
23729;DHT22;12045;60.214;24.724;2022-08-19T11:14:40;32.20;99.70
23729;DHT22;12045;60.214;24.724;2022-08-19T11:17:29;32.20;99.50
23729;DHT22;12045;60.214;24.724;2022-08-19T11:19:59;32.20;98.90
23729;DHT22;12045;60.214;24.724;2022-08-19T11:22:30;32.00;99.00
23729;DHT22;12045;60.214;24.724;2022-08-19T11:25:39;31.90;98.90
23729;DHT22;12045;60.214;24.724;2022-08-19T11:28:11;31.70;99.10
23729;DHT22;12045;60.214;24.724;2022-08-19T11:30:39;31.50;99.00
23729;DHT22;12045;60.214;24.724;2022-08-19T11:33:07;31.60;98.90
23729;DHT22;12045;60.214;24.724;2022-08-19T11:35:39;31.70;99.00
23729;DHT22;12045;60.214;24.724;2022-08-19T11:38:08;31.80;98.90
23729;DHT22;12045;60.214;24.724;2022-08-19T11:40:37;31.70;98.90
23729;DHT22;12045;60.214;24.724;2022-08-19T11:43:04;31.70;98.60
23729;DHT22;12045;60.214;24.724;2022-08-19T11:45:32;31.60;98.40
23729;DHT22;12045;60.214;24.724;2022-08-19T11:48:00;31.40;98.30
23729;DHT22;12045;60.214;24.724;2022-08-19T11:50:28;31.50;98.80
23729;DHT22;12045;60.214;24.724;2022-08-19T11:52:56;31.80;98.30
23729;DHT22;12045;60.214;24.724;2022-08-19T11:55:24;31.50;98.60
23729;DHT22;12045;60.214;24.724;2022-08-19T11:57:51;31.30;98.60
23729;DHT22;12045;60.214;24.724;2022-08-19T12:00:19;31.10;98.70
23729;DHT22;12045;60.214;24.724;2022-08-19T12:02:47;31.00;98.90
23729;DHT22;12045;60.214;24.724;2022-08-19T12:05:14;30.80;99.20
23729;DHT22;12045;60.214;24.724;2022-08-19T12:07:42;30.80;99.30
23729;DHT22;12045;60.214;24.724;2022-08-19T12:10:11;30.80;99.20
23729;DHT22;12045;60.214;24.724;2022-08-19T12:12:38;30.80;99.20
23729;DHT22;12045;60.214;24.724;2022-08-19T12:15:12;31.00;99.30
23729;DHT22;12045;60.214;24.724;2022-08-19T12:17:40;31.10;98.70
23729;DHT22;12045;60.214;24.724;2022-08-19T12:20:10;31.50;98.40
23729;DHT22;12045;60.214;24.724;2022-08-19T12:22:38;31.80;97.90
23729;DHT22;12045;60.214;24.724;2022-08-19T12:25:10;31.80;97.50
23729;DHT22;12045;60.214;24.724;2022-08-19T12:27:40;32.00;97.20
23729;DHT22;12045;60.214;24.724;2022-08-19T12:30:15;32.10;97.00
23729;DHT22;12045;60.214;24.724;2022-08-19T12:32:43;32.10;96.80
23729;DHT22;12045;60.214;24.724;2022-08-19T12:35:10;31.90;96.70
23729;DHT22;12045;60.214;24.724;2022-08-19T12:37:40;32.10;96.40
23729;DHT22;12045;60.214;24.724;2022-08-19T12:40:10;32.10;96.00
23729;DHT22;12045;60.214;24.724;2022-08-19T12:42:39;32.20;96.20
23729;DHT22;12045;60.214;24.724;2022-08-19T12:45:11;32.20;96.70
23729;DHT22;12045;60.214;24.724;2022-08-19T12:47:40;32.30;97.00
23729;DHT22;12045;60.214;24.724;2022-08-19T12:50:12;32.40;96.70
23729;DHT22;12045;60.214;24.724;2022-08-19T12:52:40;32.20;96.70
23729;DHT22;12045;60.214;24.724;2022-08-19T12:55:10;32.00;96.80
23729;DHT22;12045;60.214;24.724;2022-08-19T12:57:38;31.90;97.10
23729;DHT22;12045;60.214;24.724;2022-08-19T13:00:10;31.80;97.30
23729;DHT22;12045;60.214;24.724;2022-08-19T13:02:40;31.80;97.40
23729;DHT22;12045;60.214;24.724;2022-08-19T13:05:11;32.00;97.40
23729;DHT22;12045;60.214;24.724;2022-08-19T13:07:39;32.00;97.10
23729;DHT22;12045;60.214;24.724;2022-08-19T13:10:09;32.00;96.90
23729;DHT22;12045;60.214;24.724;2022-08-19T13:12:37;32.10;96.80
23729;DHT22;12045;60.214;24.724;2022-08-19T13:15:05;32.20;97.00
23729;DHT22;12045;60.214;24.724;2022-08-19T13:17:39;32.10;97.30
23729;DHT22;12045;60.214;24.724;2022-08-19T13:20:08;32.00;97.20
23729;DHT22;12045;60.214;24.724;2022-08-19T13:22:37;31.80;97.50
23729;DHT22;12045;60.214;24.724;2022-08-19T13:25:08;31.60;97.40
23729;DHT22;12045;60.214;24.724;2022-08-19T13:27:37;31.40;97.70
23729;DHT22;12045;60.214;24.724;2022-08-19T13:30:07;31.20;97.80
23729;DHT22;12045;60.214;24.724;2022-08-19T13:32:54;31.10;98.20
23729;DHT22;12045;60.214;24.724;2022-08-19T13:35:48;31.10;98.20
23729;DHT22;12045;60.214;24.724;2022-08-19T13:38:21;31.10;98.30
23729;DHT22;12045;60.214;24.724;2022-08-19T13:40:51;31.20;98.20
23729;DHT22;12045;60.214;24.724;2022-08-19T13:43:21;30.90;98.40
23729;DHT22;12045;60.214;24.724;2022-08-19T13:45:52;30.80;98.50
23729;DHT22;12045;60.214;24.724;2022-08-19T13:48:23;30.90;98.60
23729;DHT22;12045;60.214;24.724;2022-08-19T13:50:51;30.70;98.60
23729;DHT22;12045;60.214;24.724;2022-08-19T13:53:19;30.50;98.60
23729;DHT22;12045;60.214;24.724;2022-08-19T13:55:46;30.50;98.70
23729;DHT22;12045;60.214;24.724;2022-08-19T13:58:14;30.40;99.00
23729;DHT22;12045;60.214;24.724;2022-08-19T14:00:45;30.30;98.70
23729;DHT22;12045;60.214;24.724;2022-08-19T14:03:13;30.20;99.00
23729;DHT22;12045;60.214;24.724;2022-08-19T14:05:41;30.20;99.10
23729;DHT22;12045;60.214;24.724;2022-08-19T14:08:08;30.10;99.20
23729;DHT22;12045;60.214;24.724;2022-08-19T14:10:36;30.00;99.20
23729;DHT22;12045;60.214;24.724;2022-08-19T14:13:04;30.00;99.30
23729;DHT22;12045;60.214;24.724;2022-08-19T14:15:31;29.90;99.50
23729;DHT22;12045;60.214;24.724;2022-08-19T14:17:59;29.80;99.90
23729;DHT22;12045;60.214;24.724;2022-08-19T14:20:26;29.70;99.90
23729;DHT22;12045;60.214;24.724;2022-08-19T14:22:54;29.60;99.90
23729;DHT22;12045;60.214;24.724;2022-08-19T14:25:27;29.60;99.90
23729;DHT22;12045;60.214;24.724;2022-08-19T14:27:55;29.50;99.90
23729;DHT22;12045;60.214;24.724;2022-08-19T14:30:30;29.50;99.90
23729;DHT22;12045;60.214;24.724;2022-08-19T14:33:00;29.40;99.90
23729;DHT22;12045;60.214;24.724;2022-08-19T14:35:30;29.40;99.90
23729;DHT22;12045;60.214;24.724;2022-08-19T14:38:03;29.40;99.90
23729;DHT22;12045;60.214;24.724;2022-08-19T14:40:31;29.40;99.90
23729;DHT22;12045;60.214;24.724;2022-08-19T14:43:01;29.40;99.90
23729;DHT22;12045;60.214;24.724;2022-08-19T14:45:35;29.40;99.90
23729;DHT22;12045;60.214;24.724;2022-08-19T14:48:07;29.50;99.90
23729;DHT22;12045;60.214;24.724;2022-08-19T14:50:45;29.50;99.90
23729;DHT22;12045;60.214;24.724;2022-08-19T14:53:13;29.60;99.90
23729;DHT22;12045;60.214;24.724;2022-08-19T14:55:42;29.60;99.90
23729;DHT22;12045;60.214;24.724;2022-08-19T14:58:10;29.60;99.90
23729;DHT22;12045;60.214;24.724;2022-08-19T15:00:58;29.60;99.90
23729;DHT22;12045;60.214;24.724;2022-08-19T15:03:27;29.60;99.90
23729;DHT22;12045;60.214;24.724;2022-08-19T15:05:54;29.50;99.90
23729;DHT22;12045;60.214;24.724;2022-08-19T15:08:25;29.60;99.90
23729;DHT22;12045;60.214;24.724;2022-08-19T15:10:53;29.60;99.90
23729;DHT22;12045;60.214;24.724;2022-08-19T15:13:21;29.60;99.90
23729;DHT22;12045;60.214;24.724;2022-08-19T15:15:48;29.60;99.90
23729;DHT22;12045;60.214;24.724;2022-08-19T15:18:16;29.70;99.90
23729;DHT22;12045;60.214;24.724;2022-08-19T15:20:44;29.70;99.90
23729;DHT22;12045;60.214;24.724;2022-08-19T15:23:17;29.70;99.90
23729;DHT22;12045;60.214;24.724;2022-08-19T15:25:45;29.60;99.90
23729;DHT22;12045;60.214;24.724;2022-08-19T15:28:13;29.60;99.90
23729;DHT22;12045;60.214;24.724;2022-08-19T15:30:42;29.60;99.90
23729;DHT22;12045;60.214;24.724;2022-08-19T15:33:11;29.70;99.90
23729;DHT22;12045;60.214;24.724;2022-08-19T15:35:42;29.60;99.90
23729;DHT22;12045;60.214;24.724;2022-08-19T15:38:10;29.50;99.90
23729;DHT22;12045;60.214;24.724;2022-08-19T15:40:41;29.60;99.90
23729;DHT22;12045;60.214;24.724;2022-08-19T15:43:08;29.50;99.90
23729;DHT22;12045;60.214;24.724;2022-08-19T15:45:36;29.60;99.90
23729;DHT22;12045;60.214;24.724;2022-08-19T15:48:04;28.80;99.90
23729;DHT22;12045;60.214;24.724;2022-08-19T15:50:32;29.40;99.90
23729;DHT22;12045;60.214;24.724;2022-08-19T15:53:04;29.20;99.90
23729;DHT22;12045;60.214;24.724;2022-08-19T15:55:35;29.30;99.90
23729;DHT22;12045;60.214;24.724;2022-08-19T15:58:06;29.40;99.90
23729;DHT22;12045;60.214;24.724;2022-08-19T16:00:57;29.30;99.90
23729;DHT22;12045;60.214;24.724;2022-08-19T16:03:51;29.30;99.90
23729;DHT22;12045;60.214;24.724;2022-08-19T16:06:48;29.20;99.90
23729;DHT22;12045;60.214;24.724;2022-08-19T16:09:18;29.20;99.90
23729;DHT22;12045;60.214;24.724;2022-08-19T16:11:54;29.20;99.90
23729;DHT22;12045;60.214;24.724;2022-08-19T16:14:28;29.20;99.90
23729;DHT22;12045;60.214;24.724;2022-08-19T16:16:57;29.20;99.90
23729;DHT22;12045;60.214;24.724;2022-08-19T16:19:25;29.20;99.90
23729;DHT22;12045;60.214;24.724;2022-08-19T16:21:53;29.20;99.90
23729;DHT22;12045;60.214;24.724;2022-08-19T16:24:24;29.20;99.90
23729;DHT22;12045;60.214;24.724;2022-08-19T16:26:52;29.10;99.90
23729;DHT22;12045;60.214;24.724;2022-08-19T16:29:21;29.20;99.90
23729;DHT22;12045;60.214;24.724;2022-08-19T16:32:08;29.20;99.90
23729;DHT22;12045;60.214;24.724;2022-08-19T16:34:38;29.20;99.90
23729;DHT22;12045;60.214;24.724;2022-08-19T16:37:06;30.10;99.90
23729;DHT22;12045;60.214;24.724;2022-08-19T16:39:34;29.10;99.90
23729;DHT22;12045;60.214;24.724;2022-08-19T16:42:02;28.90;99.90